Toronto, Iowa
Current Conditions -  °F | °C
As of 5:52 AM on Saturday 20 Dec 2014 (Local Time) from KDVN Reporting Station
Overcast Overcast  
Wind Chill: 22°   Ceiling: 3400
Heat Index: 28°   Visibility: 7mi
Dew Point: 23°   Wind: 6mph
Humidity: 81%   Direction: 120°ESE
Pressure: 30.24"   Gusts: NA
Location:  41.8735°N, 90.8033°W
Report Text: KDVN 201152Z AUTO 12005KT 7SM BKN034 BKN049 OVC060 M02/M05 A3024 RMK AO2 SLP251 T10221050 11017 21022 56005
Loading
Personal Weather Stations






























Interactive Weather Map New forecast layout! Learn more

10-Day Weather Forecast

Advertisements
Track Severe Weather on mobile